createdAt,value
2019-05-20T00:01:24.393Z,14.57
2019-05-20T00:04:50.018Z,14.63
2019-05-20T00:08:16.030Z,14.70
2019-05-20T00:11:41.631Z,14.82
2019-05-20T00:15:09.447Z,14.84
2019-05-20T00:18:35.061Z,14.82
2019-05-20T00:22:00.682Z,14.85
2019-05-20T00:25:27.260Z,14.82
2019-05-20T00:28:52.896Z,14.88
2019-05-20T00:32:18.567Z,14.77
2019-05-20T00:35:44.170Z,14.73
2019-05-20T00:39:17.431Z,14.68
2019-05-20T00:42:43.050Z,14.62
2019-05-20T00:46:08.694Z,14.55
2019-05-20T00:49:35.278Z,14.37
2019-05-20T00:53:02.567Z,14.34
2019-05-20T00:56:29.422Z,14.44
2019-05-20T00:59:55.029Z,14.45
2019-05-20T01:03:20.653Z,14.45
2019-05-20T01:06:46.404Z,14.37
2019-05-20T01:10:12.259Z,14.29
2019-05-20T01:13:37.879Z,14.29
2019-05-20T01:17:03.518Z,14.31
2019-05-20T01:20:29.185Z,14.26
2019-05-20T01:23:54.799Z,14.15
2019-05-20T01:27:20.412Z,14.14
2019-05-20T01:30:46.380Z,14.06
2019-05-20T01:34:11.991Z,14.02
2019-05-20T01:37:37.599Z,13.92
2019-05-20T01:41:04.568Z,13.87
2019-05-20T01:44:30.575Z,13.74
2019-05-20T01:47:56.193Z,13.74
2019-05-20T01:51:21.801Z,13.72
2019-05-20T01:54:47.468Z,13.66
2019-05-20T01:58:13.737Z,13.60
2019-05-20T02:01:40.772Z,13.52
2019-05-20T02:05:09.607Z,13.61
2019-05-20T02:08:35.792Z,13.60
2019-05-20T02:12:01.398Z,13.53
2019-05-20T02:15:40.791Z,13.55
2019-05-20T02:19:06.675Z,13.59
2019-05-20T02:22:32.286Z,13.66
2019-05-20T02:25:57.897Z,13.59
2019-05-20T02:29:23.813Z,13.46
2019-05-20T02:32:49.518Z,13.35
2019-05-20T02:36:16.582Z,13.39
2019-05-20T02:39:42.180Z,13.27
2019-05-20T02:43:07.958Z,13.24
2019-05-20T02:46:33.577Z,13.26
2019-05-20T02:50:00.098Z,13.19
2019-05-20T02:53:26.424Z,13.24
2019-05-20T02:56:52.432Z,13.26
2019-05-20T03:00:18.415Z,13.14
2019-05-20T03:03:44.025Z,13.17
2019-05-20T03:07:09.639Z,13.18
2019-05-20T03:10:35.243Z,13.23
2019-05-20T03:14:01.234Z,13.24
2019-05-20T03:17:26.854Z,13.30
2019-05-20T03:20:52.461Z,13.18
2019-05-20T03:24:18.597Z,13.22
2019-05-20T03:27:44.313Z,13.19
2019-05-20T03:31:10.655Z,13.21
2019-05-20T03:34:46.573Z,13.09
2019-05-20T03:38:03.593Z,13.10
2019-05-20T03:41:29.198Z,13.12
2019-05-20T03:44:55.218Z,13.14
2019-05-20T03:48:20.901Z,13.21
2019-05-20T03:51:46.514Z,13.24
2019-05-20T03:55:12.542Z,13.24
2019-05-20T03:58:38.239Z,13.10
2019-05-20T04:02:04.719Z,13.02
2019-05-20T04:05:30.415Z,13.01
2019-05-20T04:08:57.686Z,13.04
2019-05-20T04:12:23.309Z,13.02
2019-05-20T04:15:48.905Z,12.92
2019-05-20T04:19:14.577Z,12.91
2019-05-20T04:22:40.177Z,12.83
2019-05-20T04:26:05.805Z,12.82
2019-05-20T04:29:31.631Z,12.83
2019-05-20T04:32:57.386Z,12.87
2019-05-20T04:36:22.992Z,12.86
2019-05-20T04:39:48.882Z,12.96
2019-05-20T04:43:14.532Z,12.94
2019-05-20T04:46:40.530Z,12.91
2019-05-20T04:50:09.202Z,12.96
2019-05-20T04:53:35.777Z,12.97
2019-05-20T04:57:01.383Z,13.00
2019-05-20T05:00:50.820Z,13.05
2019-05-20T05:04:16.431Z,13.16
2019-05-20T05:07:42.071Z,13.26
2019-05-20T05:11:07.699Z,13.27
2019-05-20T05:14:33.834Z,13.27
2019-05-20T05:17:59.438Z,13.31
2019-05-20T05:21:25.156Z,13.41
2019-05-20T05:24:50.765Z,13.41
2019-05-20T05:28:17.888Z,13.38
2019-05-20T05:31:44.254Z,13.33
2019-05-20T05:35:11.624Z,13.28
2019-05-20T05:38:37.231Z,13.33
2019-05-20T05:42:02.882Z,13.33
2019-05-20T05:45:34.324Z,13.31
2019-05-20T05:49:00.563Z,13.32
2019-05-20T05:52:26.235Z,13.24
2019-05-20T05:55:51.893Z,13.23
2019-05-20T05:59:17.574Z,13.22
2019-05-20T06:02:43.727Z,13.30
2019-05-20T06:06:12.604Z,13.31
2019-05-20T06:09:36.690Z,13.39
2019-05-20T06:13:03.121Z,13.37
2019-05-20T06:16:36.519Z,13.45
2019-05-20T06:19:56.036Z,13.52
2019-05-20T06:23:21.740Z,13.60
2019-05-20T06:26:47.353Z,13.76
2019-05-20T06:30:14.695Z,14.09
2019-05-20T06:33:40.307Z,14.42
2019-05-20T06:37:23.006Z,14.74
2019-05-20T06:40:48.610Z,14.95
2019-05-20T06:44:14.450Z,15.44
2019-05-20T06:47:40.068Z,15.66
2019-05-20T06:51:06.748Z,15.63
2019-05-20T06:54:32.779Z,15.78
2019-05-20T06:57:58.409Z,16.31
2019-05-20T07:01:24.017Z,16.35
2019-05-20T07:04:50.841Z,16.56
2019-05-20T07:08:16.449Z,16.84
2019-05-20T07:11:51.903Z,16.95
2019-05-20T07:15:10.853Z,17.01
2019-05-20T07:18:37.053Z,17.04
2019-05-20T07:22:03.135Z,17.20
2019-05-20T07:25:28.846Z,17.18
2019-05-20T07:28:54.824Z,17.03
2019-05-20T07:32:21.342Z,17.17
2019-05-20T07:35:47.012Z,17.31
2019-05-20T07:39:12.717Z,17.51
2019-05-20T07:42:38.392Z,16.94
2019-05-20T07:46:05.324Z,17.16
2019-05-20T07:49:31.417Z,17.11
2019-05-20T07:53:00.416Z,17.32
2019-05-20T07:56:30.024Z,17.12
2019-05-20T07:59:56.853Z,16.92
2019-05-20T08:03:24.286Z,16.96
2019-05-20T08:06:50.778Z,17.04
2019-05-20T08:10:17.126Z,16.72
2019-05-20T08:13:43.687Z,17.03
2019-05-20T08:17:09.686Z,17.29
2019-05-20T08:20:35.540Z,17.49
2019-05-20T08:24:01.772Z,17.75
2019-05-20T08:27:27.938Z,17.67
2019-05-20T08:30:53.557Z,17.42
2019-05-20T08:34:19.149Z,17.20
2019-05-20T08:37:46.121Z,17.32
2019-05-20T08:41:12.386Z,18.08
2019-05-20T08:44:38.010Z,18.81
2019-05-20T08:48:03.603Z,19.33
2019-05-20T08:51:29.981Z,19.37
2019-05-20T08:54:55.585Z,19.00
2019-05-20T08:58:22.373Z,18.41
2019-05-20T09:01:49.571Z,18.19
2019-05-20T09:05:15.355Z,18.25
2019-05-20T09:08:41.875Z,18.36
2019-05-20T09:12:07.799Z,18.66
2019-05-20T09:15:33.417Z,18.61
2019-05-20T09:18:59.101Z,18.99
2019-05-20T09:22:24.696Z,18.98
2019-05-20T09:25:50.398Z,18.97
2019-05-20T09:29:16.079Z,18.56
2019-05-20T09:32:43.132Z,18.45
2019-05-20T09:36:09.093Z,19.21
2019-05-20T09:39:35.511Z,19.69
2019-05-20T09:43:01.679Z,19.49
2019-05-20T09:46:27.380Z,18.79
2019-05-20T09:49:52.985Z,19.33
2019-05-20T09:53:18.721Z,18.42
2019-05-20T09:56:44.321Z,18.72
2019-05-20T10:00:11.930Z,18.53
2019-05-20T10:03:37.947Z,19.21
2019-05-20T10:07:03.721Z,19.11
2019-05-20T10:10:29.748Z,19.82
2019-05-20T10:13:55.614Z,20.33
2019-05-20T10:17:21.229Z,20.88
2019-05-20T10:20:46.877Z,21.45
2019-05-20T10:24:12.478Z,21.62
2019-05-20T10:27:38.104Z,21.19
2019-05-20T10:31:03.709Z,21.46
2019-05-20T10:34:29.332Z,21.42
2019-05-20T10:37:54.959Z,21.21
2019-05-20T10:41:20.582Z,20.79
2019-05-20T10:44:46.228Z,20.64
2019-05-20T10:48:12.746Z,20.13
2019-05-20T10:51:38.345Z,20.33
2019-05-20T10:55:05.417Z,20.20
2019-05-20T10:58:31.187Z,20.40
2019-05-20T11:01:56.904Z,19.97
2019-05-20T11:05:23.596Z,20.72
2019-05-20T11:08:49.208Z,20.23
2019-05-20T11:12:14.819Z,20.82
2019-05-20T11:15:41.402Z,20.08
2019-05-20T11:19:07.013Z,20.43
2019-05-20T11:22:33.055Z,20.68
2019-05-20T11:25:58.704Z,20.50
2019-05-20T11:29:25.849Z,20.53
2019-05-20T11:32:51.978Z,21.00
2019-05-20T11:36:18.105Z,20.88
2019-05-20T11:39:44.093Z,21.28
2019-05-20T11:43:09.788Z,20.68
2019-05-20T11:46:35.693Z,20.36
2019-05-20T11:50:01.329Z,21.06
2019-05-20T11:53:27.640Z,21.67
2019-05-20T11:56:53.704Z,21.40
2019-05-20T12:00:20.415Z,20.98
2019-05-20T12:03:46.178Z,21.06
2019-05-20T12:07:11.743Z,21.02
2019-05-20T12:10:37.818Z,21.54
2019-05-20T12:14:05.370Z,21.61
2019-05-20T12:18:34.818Z,21.99
2019-05-20T12:22:00.477Z,21.78
2019-05-20T12:25:26.128Z,22.48
2019-05-20T12:28:51.730Z,22.69
2019-05-20T12:32:17.361Z,22.67
2019-05-20T12:35:42.983Z,23.26
2019-05-20T12:39:08.912Z,22.69
2019-05-20T12:42:34.496Z,22.46
2019-05-20T12:46:00.411Z,22.06
2019-05-20T12:49:26.239Z,21.79
2019-05-20T12:52:52.189Z,21.75
2019-05-20T12:56:19.699Z,21.75
2019-05-20T12:59:45.269Z,21.97
2019-05-20T13:03:10.962Z,22.56
2019-05-20T13:06:36.912Z,22.10
2019-05-20T13:10:03.461Z,21.55
2019-05-20T13:13:41.327Z,21.61
2019-05-20T13:17:06.928Z,21.33
2019-05-20T13:20:32.819Z,21.46
2019-05-20T13:23:58.442Z,23.17
2019-05-20T13:27:24.067Z,24.22
2019-05-20T13:30:50.282Z,24.13
2019-05-20T13:34:18.692Z,24.37
2019-05-20T13:37:45.331Z,23.33
2019-05-20T13:41:10.964Z,22.14
2019-05-20T13:44:37.377Z,22.51
2019-05-20T13:48:03.455Z,22.94
2019-05-20T13:51:29.209Z,22.30
2019-05-20T13:54:55.408Z,21.24
2019-05-20T13:58:25.045Z,21.59
2019-05-20T14:01:50.662Z,22.58
2019-05-20T14:05:16.789Z,24.17
2019-05-20T14:08:42.490Z,24.88
2019-05-20T14:12:08.092Z,23.52
2019-05-20T14:15:33.762Z,24.86
2019-05-20T14:18:59.357Z,22.78
2019-05-20T14:22:25.489Z,23.17
2019-05-20T14:25:51.105Z,24.22
2019-05-20T14:29:16.893Z,23.40
2019-05-20T14:32:42.492Z,22.02
2019-05-20T14:36:08.113Z,22.03
2019-05-20T14:39:33.714Z,24.31
2019-05-20T14:42:59.441Z,25.53
2019-05-20T14:46:25.125Z,23.65
2019-05-20T14:49:51.319Z,23.12
2019-05-20T14:53:16.940Z,23.23
2019-05-20T14:56:43.647Z,23.76
2019-05-20T15:00:10.563Z,23.24
2019-05-20T15:03:36.231Z,24.90
2019-05-20T15:07:01.807Z,23.68
2019-05-20T15:10:27.537Z,23.49
2019-05-20T15:13:53.170Z,21.69
2019-05-20T15:17:18.856Z,21.79
2019-05-20T15:20:44.614Z,21.84
2019-05-20T15:24:12.259Z,20.66
2019-05-20T15:27:39.262Z,21.04
2019-05-20T15:31:04.969Z,20.77
2019-05-20T15:34:30.627Z,22.55
2019-05-20T15:37:56.254Z,21.14
2019-05-20T15:41:21.929Z,19.89
2019-05-20T15:44:47.562Z,19.65
2019-05-20T15:48:13.166Z,20.56
2019-05-20T15:51:38.772Z,20.62
2019-05-20T15:55:06.476Z,20.52
2019-05-20T15:58:32.615Z,20.36
2019-05-20T16:01:58.203Z,19.94
2019-05-20T16:05:24.156Z,20.87
2019-05-20T16:08:49.748Z,21.05
2019-05-20T16:12:15.377Z,20.78
2019-05-20T16:15:43.945Z,19.42
2019-05-20T16:19:09.595Z,21.32
2019-05-20T16:22:35.254Z,21.25
2019-05-20T16:26:00.910Z,19.68
2019-05-20T16:29:26.573Z,19.21
2019-05-20T16:32:52.274Z,18.49
2019-05-20T16:36:17.866Z,17.81
2019-05-20T16:39:43.496Z,17.71
2019-05-20T16:43:09.484Z,17.42
2019-05-20T16:46:35.996Z,16.91
2019-05-20T16:50:01.589Z,16.91
2019-05-20T16:53:27.488Z,16.84
2019-05-20T16:56:53.254Z,16.43
2019-05-20T17:00:31.337Z,16.42
2019-05-20T17:03:50.335Z,16.45
2019-05-20T17:07:16.635Z,16.71
2019-05-20T17:10:42.231Z,16.74
2019-05-20T17:14:10.535Z,16.74
2019-05-20T17:17:35.170Z,16.40
2019-05-20T17:21:01.571Z,15.97
2019-05-20T17:24:27.243Z,15.97
2019-05-20T17:27:52.858Z,15.97
2019-05-20T17:31:19.455Z,15.69
2019-05-20T17:34:45.077Z,15.66
2019-05-20T17:38:13.808Z,15.71
2019-05-20T17:41:40.103Z,15.87
2019-05-20T17:45:09.212Z,15.86
2019-05-20T17:48:35.243Z,15.76
2019-05-20T17:52:01.279Z,15.91
2019-05-20T17:55:27.161Z,15.93
2019-05-20T17:58:53.816Z,15.63
2019-05-20T18:02:19.535Z,15.31
2019-05-20T18:05:46.670Z,15.22
2019-05-20T18:09:13.553Z,15.36
2019-05-20T18:12:39.223Z,15.46
2019-05-20T18:16:05.109Z,15.77
2019-05-20T18:19:30.907Z,15.78
2019-05-20T18:22:56.504Z,15.63
2019-05-20T18:26:22.345Z,15.66
2019-05-20T18:29:48.940Z,15.57
2019-05-20T18:33:14.930Z,15.31
2019-05-20T18:36:41.383Z,15.23
2019-05-20T18:40:14.111Z,14.93
2019-05-20T18:43:36.496Z,14.93
2019-05-20T18:47:02.775Z,14.88
2019-05-20T18:50:28.565Z,15.00
2019-05-20T18:53:54.234Z,15.11
2019-05-20T18:57:20.452Z,15.06
2019-05-20T19:00:46.325Z,15.05
2019-05-20T19:04:12.418Z,14.85
2019-05-20T19:07:38.282Z,14.74
2019-05-20T19:11:04.063Z,14.64
2019-05-20T19:14:29.789Z,14.65
2019-05-20T19:17:55.732Z,14.57
2019-05-20T19:21:21.335Z,14.56
2019-05-20T19:24:46.992Z,14.43
2019-05-20T19:28:13.573Z,14.38
2019-05-20T19:31:39.208Z,14.43
2019-05-20T19:35:07.993Z,14.57
2019-05-20T19:38:35.151Z,14.66
2019-05-20T19:42:00.822Z,14.62
2019-05-20T19:45:26.505Z,14.48
2019-05-20T19:48:52.190Z,14.41
2019-05-20T19:52:17.833Z,14.24
2019-05-20T19:55:43.490Z,14.18
2019-05-20T19:59:09.185Z,14.05
2019-05-20T20:02:34.861Z,13.98
2019-05-20T20:06:00.532Z,13.89
2019-05-20T20:09:26.210Z,13.88
2019-05-20T20:12:51.895Z,13.87
2019-05-20T20:16:18.332Z,14.00
2019-05-20T20:19:44.098Z,13.94
2019-05-20T20:23:09.946Z,13.71
2019-05-20T20:26:35.538Z,13.82
2019-05-20T20:30:01.300Z,13.87
2019-05-20T20:33:28.888Z,13.83
2019-05-20T20:36:54.615Z,13.75
2019-05-20T20:40:20.435Z,13.80
2019-05-20T20:43:46.081Z,13.86
2019-05-20T20:47:11.755Z,13.75
2019-05-20T20:50:37.390Z,13.66
2019-05-20T20:54:03.227Z,13.76
2019-05-20T20:57:29.190Z,13.72
2019-05-20T21:00:54.822Z,13.71
2019-05-20T21:04:20.516Z,13.68
2019-05-20T21:07:46.174Z,13.75
2019-05-20T21:11:11.849Z,13.78
2019-05-20T21:14:37.582Z,13.67
2019-05-20T21:18:03.456Z,13.59
2019-05-20T21:21:30.261Z,13.51
2019-05-20T21:24:55.895Z,13.61
2019-05-20T21:28:22.048Z,13.55
2019-05-20T21:31:47.705Z,13.46
2019-05-20T21:35:13.552Z,13.37
2019-05-20T21:38:39.164Z,13.36
2019-05-20T21:42:04.848Z,13.39
2019-05-20T21:45:30.532Z,13.31
2019-05-20T21:48:56.153Z,13.24
2019-05-20T21:52:21.746Z,13.28
2019-05-20T21:55:47.354Z,13.18
2019-05-20T21:59:12.960Z,13.12
2019-05-20T22:02:38.565Z,13.21
2019-05-20T22:06:04.429Z,13.23
2019-05-20T22:09:30.128Z,13.22
2019-05-20T22:12:55.736Z,13.01
2019-05-20T22:16:21.348Z,13.06
2019-05-20T22:19:46.949Z,12.97
2019-05-20T22:23:15.048Z,12.87
2019-05-20T22:26:41.766Z,12.81
2019-05-20T22:30:09.501Z,12.88
2019-05-20T22:33:41.459Z,12.83
2019-05-20T22:37:02.672Z,12.86
2019-05-20T22:40:28.290Z,12.84
2019-05-20T22:43:53.911Z,12.82
2019-05-20T22:47:19.511Z,12.92
2019-05-20T22:50:48.534Z,12.89
2019-05-20T22:54:12.472Z,12.87
2019-05-20T22:57:38.093Z,12.84
2019-05-20T23:01:03.861Z,12.79
2019-05-20T23:04:29.475Z,12.82
2019-05-20T23:07:55.071Z,12.80
2019-05-20T23:11:20.681Z,12.77
2019-05-20T23:14:46.277Z,12.73
2019-05-20T23:18:11.877Z,12.74
2019-05-20T23:21:37.492Z,12.71
2019-05-20T23:25:03.111Z,12.74
2019-05-20T23:28:28.696Z,12.73
2019-05-20T23:31:54.318Z,12.86
2019-05-20T23:35:19.915Z,12.90
2019-05-20T23:38:45.858Z,12.82
2019-05-20T23:42:11.704Z,12.67
2019-05-20T23:45:37.304Z,12.64
2019-05-20T23:49:02.903Z,12.69
2019-05-20T23:52:28.626Z,12.67
2019-05-20T23:55:54.305Z,12.78
2019-05-20T23:59:19.930Z,12.79
